Date,TemperatureHighF,TemperatureAvgF,TemperatureLowF,DewpointHighF,DewpointAvgF,DewpointLowF,HumidityHigh,HumidityAvg,HumidityLow,PressureMaxIn,PressureMinIn,WindSpeedMaxMPH,WindSpeedAvgMPH,GustSpeedMaxMPH,PrecipitationSumIn
2013-5-1,72.4,55.7,35.7,38.0,33.8,26.0,89,51,18,30.41,30.26,6,1,11,0.00
2013-5-2,77.1,58.8,35.3,43.0,36.9,32.0,90,51,22,30.41,30.25,6,1,11,0.00
2013-5-3,67.9,57.1,44.0,43.0,33.7,25.0,75,44,20,30.38,30.27,10,2,12,0.00
2013-5-4,72.6,56.2,36.2,42.0,38.4,34.0,91,57,28,30.31,30.16,7,2,12,0.00
2013-5-5,70.9,56.4,36.2,42.0,31.3,17.0,87,47,13,30.22,30.12,8,2,11,0.00
2013-5-6,73.8,55.7,32.4,47.0,37.4,30.0,92,56,24,30.19,30.06,8,2,11,0.00
2013-5-7,76.7,60.8,40.7,53.0,45.5,39.0,93,62,29,30.12,30.01,7,1,10,0.00
2013-5-8,61.0,58.9,53.2,58.0,55.2,51.0,95,88,75,30.07,29.91,9,1,11,0.48
2013-5-9,64.5,55.6,48.2,55.0,51.3,47.0,97,86,60,29.95,29.84,3,1,7,0.06
2013-5-10,75.6,60.8,44.3,57.0,49.5,44.0,98,70,36,29.96,29.81,8,1,11,0.00
2013-5-11,65.0,60.3,54.5,60.0,56.0,52.0,92,86,71,29.82,29.62,6,1,15,0.52
2013-5-12,56.0,50.4,41.0,51.0,38.4,24.0,92,67,31,29.82,29.61,15,3,19,0.00
2013-5-13,44.8,39.7,31.3,29.0,26.2,23.0,87,59,50,30.07,29.82,13,4,19,0.00
2013-5-14,53.3,41.4,28.2,31.0,25.7,18.0,93,60,28,30.11,30.01,8,2,13,0.00
2013-5-15,68.7,49.0,29.6,54.0,39.3,27.0,91,71,51,30.05,29.60,16,3,30,0.05
2013-5-16,75.2,65.4,52.3,46.0,36.4,33.0,65,36,23,29.80,29.66,18,5,22,0.00
2013-5-17,65.7,54.8,44.2,42.0,37.7,34.0,86,55,34,30.20,29.80,12,4,17,0.00
2013-5-18,67.7,53.5,35.6,46.0,40.8,34.0,94,66,35,30.27,30.19,9,2,15,0.00
2013-5-19,56.7,53.9,47.2,53.0,49.8,44.0,91,86,80,30.24,30.09,11,3,17,0.00
2013-5-20,82.1,66.2,52.3,65.0,58.2,51.0,96,77,43,30.10,29.89,8,2,18,0.00
2013-5-21,88.7,70.8,53.2,66.0,56.8,-99.9,96,68,36,29.92,29.73,7,-19,14,0.00
2013-5-22,82.5,72.3,61.6,69.0,64.5,59.0,95,77,55,29.79,29.72,9,2,20,0.55
2013-5-23,74.9,68.0,60.3,65.0,59.2,51.0,95,75,44,29.77,29.66,12,2,18,0.61
2013-5-24,60.4,47.7,37.1,59.0,46.0,36.0,97,94,88,29.95,29.60,13,4,17,0.73
2013-5-25,41.8,39.3,36.8,40.0,37.7,36.0,95,93,91,29.96,29.90,18,7,23,0.87
2013-5-26,54.3,45.1,35.8,40.0,36.9,34.0,92,74,48,30.15,29.87,14,6,30,0.02
2013-5-27,68.3,50.3,30.5,42.0,34.5,29.0,96,62,25,30.21,30.12,11,2,18,0.00
2013-5-28,64.7,51.2,35.6,53.0,42.9,34.0,95,77,35,30.20,30.08,8,2,13,0.07
2013-5-29,81.1,66.8,54.3,65.0,60.5,53.0,97,82,54,30.09,29.91,9,2,27,1.49
2013-5-30,86.0,70.8,55.2,69.0,61.8,55.0,98,77,43,30.07,30.01,9,2,14,0.00
2013-5-31,89.7,73.7,55.0,67.0,59.6,54.0,95,67,34,30.09,29.91,6,1,12,0.00